logo
Search for airport 
image banner adimage banner adimage banner ad
image banner ad

FAHV - Gariep Dam Airfield

Located in Fontainebleau, South Africa

ICAO - FAHV, IATA -

Data provided by Airmate  

General information

Coordinates: S30°33'44" E25°31'48"
Elevation is 4176 feet MSL.
 
View others Airports in Free State

Operational data

Special qualification required
Current time UTC:
Current local time:
Weather at : - ( 0 km )
METAR: PKWA 180820Z AUTO 07012KT 10SM CLR 27/25 A2982 RMK AO2 T02740252 TSNO
View NOTAMs / SUP AIP / TFR affecting this airport [VIEW]
Communications frequencies: [VIEW]

Runways:

RWY identifierQFULength (ft)Width (ft)SurfaceLDA (ft)
1079°429875ASP
28259°429875ASP
15124°370175ASP
33304°370175ASP

Airport contact information

Address: Fontainebleau South Africa

Satellite view of FAHV